KPGA/PGA METAR and TAF weather

Enter ICAO airport designator
Station Type Date Time Source
KPGA METAR 2021/05/17 20:53 UTC NOAA

KPGA 172053Z AUTO 03007KT 10SM CLR 26/M07 A2985 RMK AO2 SLP051 T02611072 56016 TSNO


Station Type Date Time Source
KPGA Decoded METAR 2021/05/17 20:53 UTC NOAA

PAGE MUNICIPAL AIRPORT, AZ, United States (KPGA) 36-56N 111-27W 1307M
May 17, 2021 - 04:53 PM EDT / 2021.05.17 2053 UTC
Wind: from the NNE (030 degrees) at 8 MPH (7 KT):0
Visibility: 10 mile(s):0
Sky conditions: clear
Temperature: 79.0 F (26.1 C)
Dew Point: 19.0 F (-7.2 C)
Relative Humidity: 10%
Pressure (altimeter): 29.85 in. Hg (1010 hPa)
Pressure tendency: 0.05 inches (1.6 hPa) lower than three hours ago
ob: KPGA 172053Z AUTO 03007KT 10SM CLR 26/M07 A2985 RMK AO2 SLP051 T02611072 56016 TSNO
cycle: 21

Station Type Date Time Source
KPGA TAF 2021/05/17 18:42 UTC NOAA

TAF KPGA 171738Z 1718/1818 VRB06KT P6SM BKN250
FM172100 30011G19KT P6SM SCT250
FM180300 26008KT P6SM SCT250

Example: see airport list